createdAt,value
2023-01-13T00:00:15.765Z,97851.22
2023-01-13T00:02:42.447Z,97842.16
2023-01-13T00:05:10.336Z,97842.19
2023-01-13T00:07:38.420Z,97838.81
2023-01-13T00:10:05.482Z,97838.84
2023-01-13T00:12:32.051Z,97842.38
2023-01-13T00:14:58.605Z,97836.38
2023-01-13T00:17:25.172Z,97835.59
2023-01-13T00:19:51.734Z,97826.97
2023-01-13T00:22:18.334Z,97833.81
2023-01-13T00:24:45.308Z,97834.72
2023-01-13T00:27:11.841Z,97838.13
2023-01-13T00:29:38.396Z,97834.03
2023-01-13T00:32:04.947Z,97834.03
2023-01-13T00:34:31.483Z,97827.38
2023-01-13T00:36:58.217Z,97828.03
2023-01-13T00:39:24.740Z,97817.97
2023-01-13T00:42:09.950Z,97819.84
2023-01-13T00:44:36.532Z,97813.91
2023-01-13T00:47:03.333Z,97814.09
2023-01-13T00:49:29.908Z,97809.75
2023-01-13T00:51:56.452Z,97810.66
2023-01-13T00:54:23.161Z,97802.31
2023-01-13T00:56:49.754Z,97804.88
2023-01-13T00:59:16.303Z,97801.56
2023-01-13T01:01:43.189Z,97799.88
2023-01-13T01:04:10.221Z,97794.75
2023-01-13T01:06:36.821Z,97793.78
2023-01-13T01:09:05.216Z,97787.03
2023-01-13T01:11:32.961Z,97788.69
2023-01-13T01:14:03.090Z,97782.72
2023-01-13T01:16:31.056Z,97785.22
2023-01-13T01:18:58.017Z,97787.00
2023-01-13T01:21:25.790Z,97786.94
2023-01-13T01:23:52.740Z,97783.50
2023-01-13T01:26:24.519Z,97789.41
2023-01-13T01:28:54.858Z,97790.06
2023-01-13T01:31:27.067Z,97791.75
2023-01-13T01:33:54.940Z,97790.81
2023-01-13T01:36:23.627Z,97786.28
2023-01-13T01:38:50.636Z,97781.97
2023-01-13T01:41:19.973Z,97784.59
2023-01-13T01:44:02.617Z,97772.63
2023-01-13T01:46:42.850Z,97769.13
2023-01-13T01:49:18.329Z,97767.44
2023-01-13T01:52:10.514Z,97769.09
2023-01-13T01:54:52.931Z,97756.19
2023-01-13T01:57:26.659Z,97758.75
2023-01-13T01:59:53.906Z,97752.59
2023-01-13T02:02:20.882Z,97749.22
2023-01-13T02:04:51.739Z,97748.19
2023-01-13T02:07:22.941Z,97753.34
2023-01-13T02:09:49.826Z,97749.94
2023-01-13T02:12:32.643Z,97748.25
2023-01-13T02:15:09.053Z,97747.31
2023-01-13T02:18:12.821Z,97743.13
2023-01-13T02:20:45.674Z,97744.75
2023-01-13T02:24:11.622Z,97735.03
2023-01-13T02:26:47.503Z,97732.53
2023-01-13T02:29:56.799Z,97724.00
2023-01-13T02:32:33.437Z,97722.47
2023-01-13T02:35:12.100Z,97722.31
2023-01-13T02:37:42.700Z,97710.19
2023-01-13T02:40:18.094Z,97712.56
2023-01-13T02:43:11.740Z,97712.41
2023-01-13T02:45:46.727Z,97706.44
2023-01-13T02:48:15.386Z,97717.44
2023-01-13T02:50:50.892Z,97711.56
2023-01-13T02:53:43.317Z,97714.03
2023-01-13T02:56:10.751Z,97708.81
2023-01-13T02:58:41.012Z,97703.66
2023-01-13T03:01:07.990Z,97709.78
2023-01-13T03:03:34.505Z,97698.53
2023-01-13T03:06:41.648Z,97695.16
2023-01-13T03:09:15.955Z,97697.84
2023-01-13T03:12:13.923Z,97696.06
2023-01-13T03:15:04.515Z,97695.31
2023-01-13T03:17:44.370Z,97698.88
2023-01-13T03:20:33.574Z,97697.13
2023-01-13T03:23:13.292Z,97691.84
2023-01-13T03:26:04.413Z,97689.41
2023-01-13T03:28:38.447Z,97694.47
2023-01-13T03:31:11.107Z,97692.09
2023-01-13T03:34:00.251Z,97688.75
2023-01-13T03:36:28.651Z,97686.28
2023-01-13T03:39:00.684Z,97688.13
2023-01-13T03:41:33.963Z,97687.97
2023-01-13T03:44:22.772Z,97684.59
2023-01-13T03:47:03.907Z,97674.41
2023-01-13T03:49:45.935Z,97680.31
2023-01-13T03:52:20.072Z,97679.44
2023-01-13T03:54:54.529Z,97681.81
2023-01-13T03:57:26.592Z,97681.72
2023-01-13T03:59:56.015Z,97686.91
2023-01-13T04:02:47.455Z,97692.50
2023-01-13T04:05:14.872Z,97694.19
2023-01-13T04:08:12.767Z,97685.63
2023-01-13T04:10:52.439Z,97685.47
2023-01-13T04:13:23.433Z,97682.22
2023-01-13T04:15:50.114Z,97680.53
2023-01-13T04:18:20.892Z,97685.56
2023-01-13T04:20:50.082Z,97682.31
2023-01-13T04:23:17.728Z,97689.16
2023-01-13T04:25:46.016Z,97686.53
2023-01-13T04:28:12.896Z,97691.56
2023-01-13T04:30:40.298Z,97693.22
2023-01-13T04:33:06.956Z,97693.94
2023-01-13T04:35:34.797Z,97694.66
2023-01-13T04:38:12.132Z,97697.44
2023-01-13T04:40:39.617Z,97694.81
2023-01-13T04:43:06.275Z,97695.69
2023-01-13T04:45:32.970Z,97687.25
2023-01-13T04:47:59.688Z,97691.38
2023-01-13T04:50:26.604Z,97675.00
2023-01-13T04:52:54.047Z,97682.84
2023-01-13T04:55:22.775Z,97679.50
2023-01-13T04:57:49.236Z,97684.63
2023-01-13T05:00:18.175Z,97689.81
2023-01-13T05:02:44.590Z,97683.09
2023-01-13T05:05:11.057Z,97675.38
2023-01-13T05:07:37.474Z,97684.09
2023-01-13T05:10:04.119Z,97678.88
2023-01-13T05:12:49.014Z,97678.72
2023-01-13T05:15:34.341Z,97676.03
2023-01-13T05:18:01.644Z,97682.06
2023-01-13T05:20:28.124Z,97676.97
2023-01-13T05:23:13.196Z,97687.34
2023-01-13T05:25:44.026Z,97689.94
2023-01-13T05:28:10.913Z,97680.44
2023-01-13T05:30:42.320Z,97677.06
2023-01-13T05:33:13.970Z,97671.94
2023-01-13T05:35:43.099Z,97675.38
2023-01-13T05:38:10.374Z,97669.41
2023-01-13T05:40:59.327Z,97669.25
2023-01-13T05:43:26.894Z,97675.28
2023-01-13T05:46:08.765Z,97675.28
2023-01-13T05:48:41.118Z,97680.44
2023-01-13T05:51:10.028Z,97682.22
2023-01-13T05:53:36.733Z,97671.16
2023-01-13T05:56:07.200Z,97677.06
2023-01-13T05:58:34.164Z,97671.19
2023-01-13T06:01:08.955Z,97670.34
2023-01-13T06:03:36.165Z,97667.69
2023-01-13T06:06:03.946Z,97660.94
2023-01-13T06:08:31.947Z,97666.84
2023-01-13T06:10:58.351Z,97670.50
2023-01-13T06:13:25.438Z,97662.09
2023-01-13T06:15:52.124Z,97662.13
2023-01-13T06:18:18.770Z,97665.50
2023-01-13T06:20:47.023Z,97665.66
2023-01-13T06:23:13.628Z,97668.56
2023-01-13T06:25:47.521Z,97665.16
2023-01-13T06:28:13.966Z,97662.50
2023-01-13T06:30:47.847Z,97666.00
2023-01-13T06:33:17.907Z,97666.00
2023-01-13T06:35:49.824Z,97661.97
2023-01-13T06:38:18.681Z,97657.69
2023-01-13T06:40:45.441Z,97666.19
2023-01-13T06:43:16.325Z,97664.50
2023-01-13T06:45:52.320Z,97667.81
2023-01-13T06:48:22.056Z,97668.84
2023-01-13T06:50:48.596Z,97661.97
2023-01-13T06:53:15.008Z,97674.03
2023-01-13T06:55:41.603Z,97662.03
2023-01-13T06:58:08.094Z,97669.00
2023-01-13T07:00:37.583Z,97665.41
2023-01-13T07:03:14.246Z,97667.03
2023-01-13T07:05:42.164Z,97665.25
2023-01-13T07:08:09.729Z,97667.13
2023-01-13T07:10:37.053Z,97659.47
2023-01-13T07:13:23.057Z,97669.72
2023-01-13T07:15:56.890Z,97661.94
2023-01-13T07:18:24.504Z,97667.13
2023-01-13T07:21:19.747Z,97664.41
2023-01-13T07:23:47.242Z,97678.34
2023-01-13T07:26:14.884Z,97667.25
2023-01-13T07:28:41.752Z,97669.91
2023-01-13T07:31:20.997Z,97674.91
2023-01-13T07:33:47.856Z,97663.66
2023-01-13T07:36:15.152Z,97665.56
2023-01-13T07:38:44.271Z,97665.50
2023-01-13T07:41:36.196Z,97657.75
2023-01-13T07:44:06.054Z,97657.00
2023-01-13T07:46:33.527Z,97653.44
2023-01-13T07:48:59.992Z,97648.97
2023-01-13T07:51:29.463Z,97655.91
2023-01-13T07:53:55.906Z,97654.22
2023-01-13T07:56:22.735Z,97653.44
2023-01-13T07:58:55.539Z,97653.59
2023-01-13T08:01:22.318Z,97650.78
2023-01-13T08:03:48.834Z,97650.78
2023-01-13T08:06:15.257Z,97656.88
2023-01-13T08:08:41.684Z,97651.69
2023-01-13T08:11:08.824Z,97655.22
2023-01-13T08:13:35.958Z,97662.06
2023-01-13T08:16:05.932Z,97658.53
2023-01-13T08:18:33.492Z,97657.69
2023-01-13T08:21:14.465Z,97665.56
2023-01-13T08:23:45.535Z,97671.53
2023-01-13T08:26:14.832Z,97662.28
2023-01-13T08:28:41.528Z,97654.50
2023-01-13T08:31:16.506Z,97660.59
2023-01-13T08:33:43.192Z,97660.44
2023-01-13T08:36:12.192Z,97663.81
2023-01-13T08:38:39.547Z,97668.16
2023-01-13T08:41:11.378Z,97661.97
2023-01-13T08:43:37.782Z,97665.56
2023-01-13T08:46:04.846Z,97675.88
2023-01-13T08:48:31.780Z,97676.59
2023-01-13T08:51:04.893Z,97674.09
2023-01-13T08:53:31.409Z,97681.78
2023-01-13T08:55:57.859Z,97690.44
2023-01-13T08:58:24.270Z,97690.53
2023-01-13T09:00:50.690Z,97699.38
2023-01-13T09:03:17.515Z,97701.88
2023-01-13T09:05:44.952Z,97707.06
2023-01-13T09:08:17.589Z,97704.59
2023-01-13T09:10:44.057Z,97708.97
2023-01-13T09:13:13.260Z,97702.31
2023-01-13T09:15:41.774Z,97711.91
2023-01-13T09:18:08.510Z,97717.06
2023-01-13T09:20:35.207Z,97731.75
2023-01-13T09:23:04.146Z,97729.28
2023-01-13T09:25:31.137Z,97733.72
2023-01-13T09:27:57.768Z,97745.91
2023-01-13T09:30:25.087Z,97749.66
2023-01-13T09:33:11.498Z,97747.22
2023-01-13T09:35:37.861Z,97796.19
2023-01-13T09:38:04.301Z,97821.75
2023-01-13T09:40:30.719Z,97823.47
2023-01-13T09:43:24.166Z,97826.19
2023-01-13T09:45:59.286Z,97823.16
2023-01-13T09:48:51.993Z,97823.44
2023-01-13T09:51:38.992Z,97826.88
2023-01-13T09:54:13.475Z,97831.22
2023-01-13T09:56:39.913Z,97826.03
2023-01-13T09:59:11.491Z,97821.94
2023-01-13T10:02:22.732Z,97821.09
2023-01-13T10:05:32.289Z,97817.63
2023-01-13T10:08:05.219Z,97815.97
2023-01-13T10:10:38.421Z,97798.81
2023-01-13T10:13:19.910Z,97786.94
2023-01-13T10:16:07.770Z,97787.69
2023-01-13T10:18:53.074Z,97796.09
2023-01-13T10:21:37.584Z,97792.59
2023-01-13T10:24:11.507Z,97800.09
2023-01-13T10:27:03.370Z,97805.38
2023-01-13T10:29:31.285Z,97805.38
2023-01-13T10:31:59.777Z,97809.50
2023-01-13T10:34:27.577Z,97823.09
2023-01-13T10:37:00.005Z,97821.34
2023-01-13T10:39:27.373Z,97828.22
2023-01-13T10:42:13.706Z,97835.75
2023-01-13T10:44:50.274Z,97827.97
2023-01-13T10:47:24.363Z,97829.72
2023-01-13T10:50:09.682Z,97829.59
2023-01-13T10:52:43.847Z,97835.72
2023-01-13T10:55:30.593Z,97813.50
2023-01-13T10:57:58.988Z,97812.50
2023-01-13T11:00:32.477Z,97813.28
2023-01-13T11:03:16.718Z,97818.25
2023-01-13T11:05:58.398Z,97820.69
2023-01-13T11:08:28.401Z,97810.97
2023-01-13T11:10:57.224Z,97792.28
2023-01-13T11:13:57.640Z,97796.13
2023-01-13T11:16:25.900Z,97788.03
2023-01-13T11:19:02.474Z,97797.94
2023-01-13T11:21:36.564Z,97798.34
2023-01-13T11:24:12.754Z,97794.94
2023-01-13T11:26:51.335Z,97799.06
2023-01-13T11:29:25.965Z,97793.97
2023-01-13T11:31:55.581Z,97789.47
2023-01-13T11:34:41.482Z,97794.34
2023-01-13T11:37:21.206Z,97782.63
2023-01-13T11:39:53.794Z,97784.69
2023-01-13T11:42:36.719Z,97787.63
2023-01-13T11:45:42.185Z,97788.22
2023-01-13T11:48:14.716Z,97789.84
2023-01-13T11:50:50.670Z,97792.47
2023-01-13T11:53:38.251Z,97808.75
2023-01-13T11:56:31.082Z,97810.13
2023-01-13T11:59:32.829Z,97810.09
2023-01-13T12:02:16.173Z,97811.13
2023-01-13T12:04:57.862Z,97808.25
2023-01-13T12:07:27.247Z,97808.50
2023-01-13T12:10:05.013Z,97812.03
2023-01-13T12:13:00.594Z,97804.31
2023-01-13T12:16:05.368Z,97811.16
2023-01-13T12:18:37.929Z,97819.06
2023-01-13T12:21:28.743Z,97819.09
2023-01-13T12:24:49.789Z,97818.44
2023-01-13T12:27:59.366Z,97817.91
2023-01-13T12:30:37.055Z,97817.22
2023-01-13T12:33:21.467Z,97816.41
2023-01-13T12:36:02.942Z,97825.09
2023-01-13T12:38:41.668Z,97829.41
2023-01-13T12:41:24.554Z,97823.63
2023-01-13T12:44:11.703Z,97815.19
2023-01-13T12:46:47.062Z,97805.88
2023-01-13T12:49:30.357Z,97802.28
2023-01-13T12:51:56.695Z,97793.66
2023-01-13T12:54:41.385Z,97802.34
2023-01-13T12:57:16.913Z,97805.75
2023-01-13T12:59:51.687Z,97805.44
2023-01-13T13:02:29.910Z,97802.72
2023-01-13T13:04:59.790Z,97806.09
2023-01-13T13:07:37.232Z,97809.53
2023-01-13T13:10:30.042Z,97803.66
2023-01-13T13:13:17.640Z,97796.75
2023-01-13T13:15:46.571Z,97795.06
2023-01-13T13:18:23.807Z,97806.50
2023-01-13T13:21:03.976Z,97813.34
2023-01-13T13:23:47.824Z,97811.84
2023-01-13T13:26:26.276Z,97807.47
2023-01-13T13:29:22.070Z,97807.81
2023-01-13T13:32:12.507Z,97810.50
2023-01-13T13:35:00.272Z,97819.06
2023-01-13T13:37:58.848Z,97821.53
2023-01-13T13:40:44.480Z,97826.63
2023-01-13T13:43:32.499Z,97834.13
2023-01-13T13:46:17.314Z,97841.84
2023-01-13T13:48:52.594Z,97845.03
2023-01-13T13:51:29.119Z,97845.59
2023-01-13T13:53:56.047Z,97847.38
2023-01-13T13:56:25.977Z,97836.06
2023-01-13T13:58:53.313Z,97854.13
2023-01-13T14:01:34.726Z,97846.22
2023-01-13T14:04:20.511Z,97849.72
2023-01-13T14:06:55.421Z,97854.72
2023-01-13T14:09:23.395Z,97861.88
2023-01-13T14:12:02.240Z,97867.25
2023-01-13T14:14:29.641Z,97864.72
2023-01-13T14:16:56.417Z,97870.88
2023-01-13T14:19:34.168Z,97868.44
2023-01-13T14:22:02.636Z,97870.28
2023-01-13T14:24:30.128Z,97878.13
2023-01-13T14:27:30.096Z,97868.97
2023-01-13T14:30:00.029Z,97885.47
2023-01-13T14:32:33.323Z,97872.75
2023-01-13T14:34:59.719Z,97877.06
2023-01-13T14:37:38.651Z,97871.28
2023-01-13T14:40:05.477Z,97875.53
2023-01-13T14:42:35.350Z,97888.38
2023-01-13T14:45:03.107Z,97900.34
2023-01-13T14:47:33.800Z,97907.88
2023-01-13T14:50:12.929Z,97896.41
2023-01-13T14:52:50.577Z,97901.38
2023-01-13T14:55:36.308Z,97910.97
2023-01-13T14:58:21.635Z,97907.00
2023-01-13T15:00:51.899Z,97917.38
2023-01-13T15:03:21.527Z,97912.34
2023-01-13T15:05:52.798Z,97919.13
2023-01-13T15:08:28.085Z,97926.69
2023-01-13T15:11:01.329Z,97920.81
2023-01-13T15:13:51.163Z,97923.44
2023-01-13T15:16:25.359Z,97921.91
2023-01-13T15:18:52.856Z,97931.59
2023-01-13T15:21:19.522Z,97937.66
2023-01-13T15:23:47.335Z,97948.91
2023-01-13T15:26:25.375Z,97943.19
2023-01-13T15:28:53.041Z,97965.44
2023-01-13T15:31:19.755Z,97968.03
2023-01-13T15:33:46.303Z,97963.09
2023-01-13T15:36:28.586Z,97977.59
2023-01-13T15:38:55.891Z,97987.34
2023-01-13T15:41:41.391Z,97999.63
2023-01-13T15:44:29.683Z,97995.50
2023-01-13T15:46:56.637Z,98007.59
2023-01-13T15:49:35.100Z,98000.06
2023-01-13T15:52:12.018Z,98003.50
2023-01-13T15:54:38.493Z,98015.59
2023-01-13T15:57:04.980Z,98022.53
2023-01-13T15:59:31.435Z,98025.25
2023-01-13T16:02:00.916Z,98042.44
2023-01-13T16:04:27.339Z,98057.97
2023-01-13T16:06:53.838Z,98053.78
2023-01-13T16:09:20.258Z,98059.75
2023-01-13T16:11:46.667Z,98055.53
2023-01-13T16:14:13.104Z,98061.47
2023-01-13T16:16:39.660Z,98063.13
2023-01-13T16:19:06.123Z,98062.34
2023-01-13T16:21:32.542Z,98064.91
2023-01-13T16:24:15.566Z,98082.00
2023-01-13T16:26:41.952Z,98078.63
2023-01-13T16:29:13.915Z,98074.41
2023-01-13T16:31:40.375Z,98086.34
2023-01-13T16:34:06.930Z,98082.09
2023-01-13T16:36:37.166Z,98093.16
2023-01-13T16:39:05.133Z,98082.09
2023-01-13T16:41:33.361Z,98078.66
2023-01-13T16:44:05.841Z,98082.88
2023-01-13T16:46:32.260Z,98080.22
2023-01-13T16:51:46.748Z,98099.19
2023-01-13T16:54:13.391Z,98112.06
2023-01-13T16:56:39.798Z,98124.06
2023-01-13T16:59:09.099Z,98117.34
2023-01-13T17:01:38.383Z,98114.00
2023-01-13T17:04:05.819Z,98114.84
2023-01-13T17:06:37.279Z,98124.28
2023-01-13T17:09:14.621Z,98131.16
2023-01-13T17:11:41.058Z,98138.94
2023-01-13T17:14:19.282Z,98147.53
2023-01-13T17:16:46.901Z,98146.69
2023-01-13T17:19:13.916Z,98161.28
2023-01-13T17:21:40.653Z,98160.47
2023-01-13T17:24:07.971Z,98165.63
2023-01-13T17:26:44.087Z,98163.06
2023-01-13T17:29:23.077Z,98170.72
2023-01-13T17:31:51.075Z,98168.16
2023-01-13T17:34:18.716Z,98170.69
2023-01-13T17:36:45.112Z,98166.47
2023-01-13T17:39:16.828Z,98170.75
2023-01-13T17:41:43.253Z,98161.41
2023-01-13T17:44:13.383Z,98167.34
2023-01-13T17:46:40.800Z,98164.00
2023-01-13T17:49:07.226Z,98181.06
2023-01-13T17:51:33.715Z,98179.34
2023-01-13T17:54:00.114Z,98187.97
2023-01-13T17:56:26.623Z,98188.84
2023-01-13T17:58:53.075Z,98186.28
2023-01-13T18:01:21.906Z,98193.13
2023-01-13T18:03:49.691Z,98186.22
2023-01-13T18:06:19.633Z,98188.81
2023-01-13T18:08:46.797Z,98186.31
2023-01-13T18:11:15.449Z,98185.47
2023-01-13T18:13:43.207Z,98196.59
2023-01-13T18:16:14.166Z,98196.53
2023-01-13T18:18:42.916Z,98205.91
2023-01-13T18:21:44.071Z,98201.69
2023-01-13T18:24:31.159Z,98198.25
2023-01-13T18:27:16.390Z,98205.91
2023-01-13T18:29:43.481Z,98218.69
2023-01-13T18:32:09.899Z,98216.97
2023-01-13T18:34:36.964Z,98222.91
2023-01-13T18:37:03.663Z,98215.25
2023-01-13T18:39:30.099Z,98230.59
2023-01-13T18:42:15.162Z,98224.59
2023-01-13T18:44:41.637Z,98222.88
2023-01-13T18:47:08.659Z,98234.78
2023-01-13T18:49:35.299Z,98233.94
2023-01-13T18:52:01.747Z,98241.56
2023-01-13T18:54:28.151Z,98239.03
2023-01-13T18:56:54.580Z,98233.91
2023-01-13T18:59:21.019Z,98236.50
2023-01-13T19:01:47.631Z,98229.53
2023-01-13T19:04:16.037Z,98240.50
2023-01-13T19:06:51.722Z,98239.59
2023-01-13T19:09:22.655Z,98241.22
2023-01-13T19:11:50.432Z,98242.78
2023-01-13T19:14:34.064Z,98243.66
2023-01-13T19:17:02.362Z,98245.28
2023-01-13T19:19:29.283Z,98257.09
2023-01-13T19:21:56.399Z,98244.22
2023-01-13T19:24:25.947Z,98241.63
2023-01-13T19:26:54.377Z,98250.19
2023-01-13T19:29:20.851Z,98253.53
2023-01-13T19:31:47.281Z,98251.84
2023-01-13T19:34:14.390Z,98257.81
2023-01-13T19:36:41.920Z,98262.06
2023-01-13T19:39:08.626Z,98270.66
2023-01-13T19:41:54.123Z,98274.06
2023-01-13T19:44:39.429Z,98280.91
2023-01-13T19:47:06.977Z,98280.81
2023-01-13T19:49:33.563Z,98272.31
2023-01-13T19:51:59.963Z,98277.38
2023-01-13T19:54:26.369Z,98279.09
2023-01-13T19:56:52.756Z,98282.50
2023-01-13T19:59:22.135Z,98285.13
2023-01-13T20:01:48.909Z,98290.25
2023-01-13T20:04:17.859Z,98287.69
2023-01-13T20:06:44.297Z,98294.50
2023-01-13T20:09:11.503Z,98297.88
2023-01-13T20:11:38.147Z,98295.31
2023-01-13T20:14:04.628Z,98298.75
2023-01-13T20:16:33.044Z,98299.53
2023-01-13T20:18:59.817Z,98310.75
2023-01-13T20:21:26.464Z,98315.88
2023-01-13T20:23:53.432Z,98327.03
2023-01-13T20:26:20.832Z,98331.31
2023-01-13T20:28:47.717Z,98322.81
2023-01-13T20:31:15.561Z,98322.81
2023-01-13T20:33:42.608Z,98333.94
2023-01-13T20:36:25.783Z,98336.53
2023-01-13T20:38:56.263Z,98343.38
2023-01-13T20:41:41.016Z,98344.03
2023-01-13T20:44:11.236Z,98346.63
2023-01-13T20:46:39.209Z,98342.41
2023-01-13T20:49:05.843Z,98348.34
2023-01-13T20:51:32.273Z,98353.41
2023-01-13T20:53:58.661Z,98352.56
2023-01-13T20:56:25.085Z,98351.69
2023-01-13T20:58:51.481Z,98354.28
2023-01-13T21:01:18.068Z,98358.50
2023-01-13T21:03:44.545Z,98357.66
2023-01-13T21:06:12.027Z,98349.88
2023-01-13T21:08:38.522Z,98348.19
2023-01-13T21:11:06.081Z,98352.44
2023-01-13T21:13:51.185Z,98367.03
2023-01-13T21:16:17.682Z,98366.16
2023-01-13T21:19:02.723Z,98366.13
2023-01-13T21:21:29.155Z,98371.28
2023-01-13T21:23:55.555Z,98379.91
2023-01-13T21:26:22.488Z,98372.22
2023-01-13T21:28:50.101Z,98378.28
2023-01-13T21:31:17.276Z,98375.66
2023-01-13T21:33:44.867Z,98373.16
2023-01-13T21:36:12.452Z,98376.59
2023-01-13T21:38:39.215Z,98376.53
2023-01-13T21:41:07.612Z,98383.41
2023-01-13T21:43:54.140Z,98376.56
2023-01-13T21:46:40.510Z,98385.97
2023-01-13T21:49:07.125Z,98385.19
2023-01-13T21:51:34.856Z,98388.53
2023-01-13T21:54:01.300Z,98388.53
2023-01-13T21:56:27.774Z,98391.91
2023-01-13T21:58:56.469Z,98387.66
2023-01-13T22:01:23.325Z,98396.25
2023-01-13T22:04:08.517Z,98397.16
2023-01-13T22:06:35.077Z,98393.72
2023-01-13T22:09:01.603Z,98402.19
2023-01-13T22:11:28.964Z,98402.22
2023-01-13T22:14:08.987Z,98404.81
2023-01-13T22:16:49.441Z,98412.53
2023-01-13T22:19:18.316Z,98406.50
2023-01-13T22:21:44.806Z,98409.06
2023-01-13T22:24:11.947Z,98410.72
2023-01-13T22:26:38.912Z,98412.53
2023-01-13T22:29:05.683Z,98405.81
2023-01-13T22:31:32.586Z,98402.38
2023-01-13T22:33:59.086Z,98415.25
2023-01-13T22:36:26.175Z,98415.22
2023-01-13T22:38:56.502Z,98417.00
2023-01-13T22:41:23.486Z,98419.59
2023-01-13T22:43:49.938Z,98434.19
2023-01-13T22:46:17.293Z,98433.41
2023-01-13T22:48:44.234Z,98436.84
2023-01-13T22:51:13.646Z,98433.44
2023-01-13T22:53:40.838Z,98444.50
2023-01-13T22:56:08.330Z,98439.41
2023-01-13T22:58:34.750Z,98445.28
2023-01-13T23:01:12.933Z,98447.00
2023-01-13T23:03:39.520Z,98449.56
2023-01-13T23:06:06.634Z,98456.34
2023-01-13T23:08:34.731Z,98450.38
2023-01-13T23:11:07.314Z,98459.72
2023-01-13T23:13:34.875Z,98471.69
2023-01-13T23:16:09.739Z,98466.56
2023-01-13T23:18:36.425Z,98470.81
2023-01-13T23:21:10.108Z,98474.28
2023-01-13T23:23:37.369Z,98472.53
2023-01-13T23:26:05.498Z,98482.81
2023-01-13T23:28:33.161Z,98486.31
2023-01-13T23:30:59.715Z,98488.88
2023-01-13T23:33:26.708Z,98484.66
2023-01-13T23:36:02.170Z,98495.75
2023-01-13T23:38:29.273Z,98496.59
2023-01-13T23:40:56.185Z,98485.50
2023-01-13T23:43:23.221Z,98481.25
2023-01-13T23:45:50.209Z,98483.84
2023-01-13T23:48:18.603Z,98485.53
2023-01-13T23:50:55.789Z,98484.69
2023-01-13T23:53:22.172Z,98479.56
2023-01-13T23:55:48.890Z,98488.97
2023-01-13T23:58:15.632Z,98492.41
